Time;durP1;ratioP1;P1;durP2;ratioP2;P2;SDS_P1;SDS_P2;PMS_P1;PMS_P2;Temp;Humidity;BMP_temperature;BMP_pressure;BME280_temperature;BME280_humidity;BME280_pressure;Samples;Min_cycle;Max_cycle;Signal;HPM_P1;HPM_P2
2021/05/02 00:00:14;;;;;;;6.20;3.62;;;17.70;52.90;;;;;;4343214;32;20127;-32
2021/05/02 00:02:40;;;;;;;2.92;2.47;;;17.70;53.10;;;;;;4355649;32;20090;-32
2021/05/02 00:05:08;;;;;;;3.60;3.25;;;17.60;53.10;;;;;;4355731;32;20076;-37
2021/05/02 00:07:35;;;;;;;5.37;3.67;;;17.60;53.20;;;;;;4340324;33;20114;-36
2021/05/02 00:10:01;;;;;;;3.15;2.55;;;17.50;53.20;;;;;;4328412;33;20569;-32
2021/05/02 00:12:28;;;;;;;4.65;3.15;;;17.50;53.20;;;;;;4340510;33;20451;-33
2021/05/02 00:14:54;;;;;;;3.78;3.33;;;17.50;53.10;;;;;;4340463;33;20132;-33
2021/05/02 00:17:22;;;;;;;3.92;3.55;;;17.50;53.10;;;;;;4340434;33;20063;-33
2021/05/02 00:19:49;;;;;;;3.28;2.97;;;17.40;52.90;;;;;;4340706;33;20526;-33
2021/05/02 00:22:19;;;;;;;6.72;3.50;;;17.40;53.00;;;;;;4340956;33;20075;-33
2021/05/02 00:24:49;;;;;;;5.00;3.50;;;17.40;53.20;;;;;;4340715;33;20073;-34
2021/05/02 00:27:15;;;;;;;4.90;3.45;;;17.40;53.10;;;;;;4340267;33;20563;-34
2021/05/02 00:29:42;;;;;;;4.72;4.28;;;17.40;53.30;;;;;;4350727;32;20089;-33
2021/05/02 00:32:09;;;;;;;8.50;3.15;;;17.30;53.50;;;;;;4359935;32;20063;-33
2021/05/02 00:34:36;;;;;;;3.95;3.55;;;17.30;53.50;;;;;;4360810;32;20070;-33
2021/05/02 00:37:06;;;;;;;5.93;4.00;;;17.30;53.50;;;;;;4373584;32;20096;-33
2021/05/02 00:39:35;;;;;;;7.00;4.15;;;17.30;53.60;;;;;;4375391;32;20132;-34
2021/05/02 00:42:07;;;;;;;4.25;3.85;;;17.20;53.50;;;;;;4374068;32;20595;-33
2021/05/02 00:44:47;;;;;;;5.68;4.68;;;17.20;53.40;;;;;;4374357;32;20191;-34
2021/05/02 00:47:44;;;;;;;4.40;4.00;;;17.20;54.30;;;;;;4375247;32;20059;-33
2021/05/02 00:50:15;;;;;;;4.68;3.50;;;17.20;53.50;;;;;;4373306;32;20069;-32
2021/05/02 00:52:48;;;;;;;4.65;3.53;;;17.20;53.20;;;;;;4376191;32;20069;-32
2021/05/02 00:55:47;;;;;;;4.15;3.20;;;17.20;53.00;;;;;;4375510;32;20545;-32
2021/05/02 00:58:28;;;;;;;4.97;3.80;;;17.20;53.00;;;;;;4375348;32;20069;-32
2021/05/02 01:00:54;;;;;;;4.70;4.10;;;17.20;52.80;;;;;;4346123;32;20078;-32
2021/05/02 01:03:23;;;;;;;9.23;3.97;;;17.20;52.90;;;;;;4345777;32;20098;-36
2021/05/02 01:05:50;;;;;;;6.03;3.53;;;17.20;53.00;;;;;;4345996;32;20054;-33
2021/05/02 01:08:16;;;;;;;4.40;3.70;;;17.20;52.80;;;;;;4345536;32;20073;-33
2021/05/02 01:10:43;;;;;;;4.20;3.17;;;17.10;52.90;;;;;;4357908;32;20078;-32
2021/05/02 01:13:09;;;;;;;4.15;3.50;;;17.10;52.70;;;;;;4345479;32;20079;-33
2021/05/02 01:15:35;;;;;;;3.97;3.30;;;17.10;52.70;;;;;;4329888;33;20095;-32
2021/05/02 01:18:05;;;;;;;4.03;3.62;;;17.10;52.80;;;;;;4362344;32;20188;-32
2021/05/02 01:20:42;;;;;;;6.45;4.32;;;17.10;52.80;;;;;;4372198;32;20608;-32
2021/05/02 01:23:11;;;;;;;4.28;3.87;;;17.10;53.00;;;;;;4372809;32;20081;-33
2021/05/02 01:25:38;;;;;;;6.15;4.12;;;17.10;53.10;;;;;;4372514;32;20217;-33
2021/05/02 01:28:04;;;;;;;6.93;3.78;;;17.10;53.00;;;;;;4372487;32;20089;-36
2021/05/02 01:30:31;;;;;;;5.85;5.35;;;17.10;53.20;;;;;;4372382;32;20050;-36
2021/05/02 01:32:58;;;;;;;4.97;4.22;;;17.10;53.00;;;;;;4386743;32;20113;-33
2021/05/02 01:35:24;;;;;;;7.30;4.90;;;17.10;52.90;;;;;;4387300;32;20544;-32
2021/05/02 01:37:51;;;;;;;7.12;5.25;;;17.10;52.90;;;;;;4357048;32;20082;-33
2021/05/02 01:40:18;;;;;;;5.32;4.45;;;17.10;52.90;;;;;;4357391;32;20136;-33
2021/05/02 01:42:46;;;;;;;6.68;5.03;;;17.10;52.70;;;;;;4356565;32;20541;-33
2021/05/02 01:45:13;;;;;;;8.98;5.32;;;17.20;52.70;;;;;;4358112;32;20108;-32
2021/05/02 01:47:46;;;;;;;7.30;6.35;;;17.20;52.80;;;;;;4370967;32;20153;-32
2021/05/02 01:50:13;;;;;;;4.40;3.50;;;17.20;53.10;;;;;;4330696;33;20092;-33
2021/05/02 01:52:57;;;;;;;4.20;3.50;;;17.20;52.50;;;;;;4342008;32;20086;-33
2021/05/02 01:55:24;;;;;;;6.87;4.43;;;17.30;52.00;;;;;;4342255;33;20074;-33
2021/05/02 01:57:51;;;;;;;3.70;3.20;;;17.40;51.40;;;;;;4342057;33;20157;-33
2021/05/02 02:00:25;;;;;;;4.03;3.58;;;17.40;51.00;;;;;;4342316;33;20531;-34
2021/05/02 02:02:52;;;;;;;8.18;4.57;;;17.50;50.80;;;;;;4342483;32;20067;-34
2021/05/02 02:05:23;;;;;;;5.15;4.28;;;17.50;50.60;;;;;;4342065;33;20077;-33
2021/05/02 02:07:50;;;;;;;7.07;5.15;;;17.60;50.40;;;;;;4342333;33;20070;-36
2021/05/02 02:10:19;;;;;;;5.68;3.55;;;17.70;50.20;;;;;;4341940;33;20593;-34
2021/05/02 02:12:51;;;;;;;3.75;2.90;;;17.80;50.00;;;;;;4342409;33;20101;-35
2021/05/02 02:15:19;;;;;;;5.70;3.45;;;17.90;49.80;;;;;;4357062;32;20077;-35
2021/05/02 02:17:45;;;;;;;3.90;3.03;;;18.00;49.70;;;;;;4363677;32;20090;-39
2021/05/02 02:20:13;;;;;;;3.20;2.58;;;18.20;49.40;;;;;;4356455;32;20478;-36
2021/05/02 02:22:41;;;;;;;1.73;1.52;;;18.30;49.00;;;;;;4356816;32;20154;-38
2021/05/02 02:25:10;;;;;;;3.03;2.83;;;18.50;48.80;;;;;;4356717;32;20094;-35
2021/05/02 02:27:37;;;;;;;3.60;2.75;;;18.60;48.70;;;;;;4365348;32;20058;-36
2021/05/02 02:30:07;;;;;;;3.75;2.25;;;18.80;48.50;;;;;;4372364;32;20062;-36
2021/05/02 02:32:35;;;;;;;3.53;2.70;;;19.00;48.20;;;;;;4374180;32;20142;-35
2021/05/02 02:35:04;;;;;;;2.22;1.92;;;19.20;47.80;;;;;;4374410;32;20157;-37
2021/05/02 02:37:30;;;;;;;5.07;2.80;;;19.50;47.50;;;;;;4360493;32;20062;-35
2021/05/02 02:40:00;;;;;;;3.28;2.97;;;19.80;47.10;;;;;;4374166;32;20074;-38
2021/05/02 02:42:28;;;;;;;3.90;2.70;;;20.10;46.90;;;;;;4373652;32;20447;-39
2021/05/02 02:44:59;;;;;;;4.87;2.83;;;20.40;46.40;;;;;;4372640;32;20064;-39
2021/05/02 02:47:57;;;;;;;2.92;2.58;;;20.60;45.90;;;;;;4373862;32;20080;-39
2021/05/02 02:50:23;;;;;;;2.22;1.95;;;20.90;45.50;;;;;;4373439;32;20088;-39
2021/05/02 02:52:54;;;;;;;3.00;2.30;;;21.20;45.40;;;;;;4359698;32;20069;-35
2021/05/02 02:55:23;;;;;;;5.45;2.83;;;21.50;45.00;;;;;;4360284;32;20105;-39
2021/05/02 02:57:53;;;;;;;3.20;2.90;;;21.80;44.70;;;;;;4372144;32;20154;-36
2021/05/02 03:00:21;;;;;;;3.78;2.97;;;22.00;44.30;;;;;;4374035;32;20643;-39
2021/05/02 03:03:14;;;;;;;3.53;3.22;;;22.30;44.00;;;;;;4373927;32;20635;-40
2021/05/02 03:05:41;;;;;;;4.05;3.33;;;22.50;43.90;;;;;;4372649;32;20150;-39
2021/05/02 03:08:11;;;;;;;4.78;4.28;;;22.80;43.40;;;;;;4373568;32;20091;-41
2021/05/02 03:10:40;;;;;;;4.70;4.12;;;23.00;42.90;;;;;;4373480;32;20546;-40
2021/05/02 03:13:07;;;;;;;3.95;3.17;;;23.30;42.70;;;;;;4373540;32;20074;-40
2021/05/02 03:15:34;;;;;;;7.07;4.12;;;23.40;41.80;;;;;;4373502;32;20070;-40
2021/05/02 03:18:08;;;;;;;4.03;0.95;;;23.40;41.20;;;;;;4359205;32;20476;-40
2021/05/02 03:20:38;;;;;;;5.57;3.65;;;23.50;41.00;;;;;;4373226;32;20507;-40
2021/05/02 03:23:31;;;;;;;5.53;3.28;;;23.40;40.90;;;;;;4373451;32;20077;-40
2021/05/02 03:26:06;;;;;;;7.53;3.50;;;23.40;40.80;;;;;;4371745;32;20084;-40
2021/05/02 03:28:42;;;;;;;2.42;1.55;;;23.40;40.60;;;;;;4373526;32;20646;-39
2021/05/02 03:31:09;;;;;;;6.82;3.10;;;23.40;40.30;;;;;;4371476;32;20066;-39
2021/05/02 03:33:40;;;;;;;3.62;2.90;;;23.40;40.20;;;;;;4359385;32;20066;-41
2021/05/02 03:36:11;;;;;;;5.85;3.25;;;23.40;40.20;;;;;;4373232;32;20081;-39
2021/05/02 03:38:48;;;;;;;2.40;1.52;;;23.20;39.60;;;;;;4373478;32;20066;-40
2021/05/02 03:41:16;;;;;;;5.28;0.75;;;23.00;40.00;;;;;;4373541;32;20081;-36
2021/05/02 03:43:43;;;;;;;2.00;1.20;;;22.80;40.30;;;;;;4371669;32;20113;-40
2021/05/02 03:46:23;;;;;;;1.73;0.88;;;22.70;40.50;;;;;;4371902;32;20082;-39
2021/05/02 03:48:55;;;;;;;2.65;2.25;;;22.50;40.80;;;;;;4373055;32;20082;-39
2021/05/02 03:51:23;;;;;;;3.40;1.83;;;22.40;41.20;;;;;;4373199;32;20092;-38
2021/05/02 03:53:49;;;;;;;0.98;0.70;;;22.30;41.50;;;;;;4373729;32;20062;-40
2021/05/02 03:56:41;;;;;;;1.67;1.02;;;22.30;42.10;;;;;;4373215;32;20077;-38
2021/05/02 03:59:22;;;;;;;1.98;1.27;;;22.20;41.50;;;;;;4373237;32;20072;-40
2021/05/02 04:01:55;;;;;;;3.95;2.42;;;22.10;41.50;;;;;;4373605;32;20522;-37
2021/05/02 04:04:35;;;;;;;2.70;1.90;;;22.00;41.80;;;;;;4373203;32;20074;-38
2021/05/02 04:07:10;;;;;;;5.55;4.03;;;21.90;42.00;;;;;;4372880;32;20090;-40
2021/05/02 04:09:37;;;;;;;6.95;3.97;;;21.90;42.10;;;;;;4373036;32;20139;-41
2021/05/02 04:12:05;;;;;;;4.15;2.55;;;21.80;42.20;;;;;;4371812;32;20142;-42
2021/05/02 04:14:31;;;;;;;5.30;3.62;;;21.80;42.30;;;;;;4373172;32;20055;-40
2021/05/02 04:17:06;;;;;;;4.72;3.70;;;21.90;42.50;;;;;;4376329;32;20086;-40
2021/05/02 04:19:35;;;;;;;4.43;3.28;;;22.00;42.60;;;;;;4388344;32;20138;-38
2021/05/02 04:22:02;;;;;;;2.72;2.08;;;22.00;42.30;;;;;;4388219;32;20082;-41
2021/05/02 04:24:28;;;;;;;5.50;4.20;;;22.10;42.30;;;;;;4386316;32;20586;-42
2021/05/02 04:26:55;;;;;;;5.10;4.57;;;22.30;42.10;;;;;;4387702;32;20534;-38
2021/05/02 04:29:24;;;;;;;3.60;3.25;;;22.40;42.00;;;;;;4388235;32;20565;-42
2021/05/02 04:31:51;;;;;;;3.72;1.50;;;22.50;41.80;;;;;;4374119;32;20069;-41
2021/05/02 04:34:18;;;;;;;3.42;2.78;;;22.60;41.30;;;;;;4387606;32;20067;-42
2021/05/02 04:36:46;;;;;;;5.53;2.65;;;22.60;41.00;;;;;;4387724;32;20672;-42
2021/05/02 04:39:13;;;;;;;3.42;2.62;;;22.60;41.00;;;;;;4357395;32;20089;-42
2021/05/02 04:41:39;;;;;;;1.58;1.02;;;22.60;40.90;;;;;;4357821;32;20541;-42
2021/05/02 04:44:06;;;;;;;5.18;4.55;;;22.60;41.10;;;;;;4357905;32;20074;-41
2021/05/02 04:46:33;;;;;;;4.00;3.40;;;22.60;41.30;;;;;;4370233;32;20076;-40
2021/05/02 04:49:00;;;;;;;2.85;2.37;;;22.60;42.10;;;;;;4369635;32;20525;-42
2021/05/02 04:51:27;;;;;;;4.22;3.92;;;22.60;41.50;;;;;;4370323;32;20082;-41
2021/05/02 04:53:54;;;;;;;4.18;3.80;;;22.70;41.40;;;;;;4370486;32;20069;-41
2021/05/02 04:56:20;;;;;;;4.57;4.18;;;22.80;41.10;;;;;;4369965;32;20078;-41
2021/05/02 04:58:47;;;;;;;6.28;1.25;;;23.00;41.60;;;;;;4370029;32;20578;-41
2021/05/02 05:01:13;;;;;;;4.45;3.03;;;23.20;40.80;;;;;;4370179;32;20164;-41
2021/05/02 05:03:44;;;;;;;6.55;3.75;;;23.30;40.00;;;;;;4369876;32;20109;-41
2021/05/02 05:06:10;;;;;;;5.45;3.62;;;23.40;39.50;;;;;;4370190;32;20097;-41
2021/05/02 05:08:37;;;;;;;3.47;3.10;;;23.50;39.30;;;;;;4357653;32;20094;-42
2021/05/02 05:11:04;;;;;;;4.50;3.33;;;23.60;38.60;;;;;;4370257;32;20525;-41
2021/05/02 05:13:30;;;;;;;4.68;4.28;;;23.60;38.80;;;;;;4370018;32;20069;-41
2021/05/02 05:15:57;;;;;;;5.95;3.95;;;23.70;38.80;;;;;;4373567;32;20198;-42
2021/05/02 05:18:24;;;;;;;4.15;3.40;;;23.80;38.80;;;;;;4389692;32;20070;-41
2021/05/02 05:20:52;;;;;;;5.18;2.80;;;23.90;38.80;;;;;;4390206;32;20069;-41
2021/05/02 05:23:18;;;;;;;3.15;2.85;;;24.00;38.60;;;;;;4387352;32;20213;-42
2021/05/02 05:25:44;;;;;;;4.30;2.83;;;24.20;38.00;;;;;;4387600;32;20532;-41
2021/05/02 05:28:11;;;;;;;3.90;3.60;;;24.20;37.30;;;;;;4387400;32;20582;-39
2021/05/02 05:30:37;;;;;;;4.72;4.10;;;24.40;37.10;;;;;;4387428;32;20069;-40
2021/05/02 05:33:05;;;;;;;5.43;3.28;;;24.50;37.10;;;;;;4387066;32;20074;-41
2021/05/02 05:35:32;;;;;;;3.65;2.92;;;24.60;37.10;;;;;;4387081;32;20151;-40
2021/05/02 05:37:59;;;;;;;3.47;2.58;;;24.60;37.00;;;;;;4387283;32;20163;-36
2021/05/02 05:40:26;;;;;;;4.62;2.62;;;24.50;36.60;;;;;;4387452;32;20096;-42
2021/05/02 05:42:52;;;;;;;4.00;2.67;;;24.50;36.80;;;;;;4374721;32;20104;-42
2021/05/02 05:45:19;;;;;;;10.68;4.10;;;24.40;36.80;;;;;;4387507;32;20109;-41
2021/05/02 05:47:50;;;;;;;5.80;4.22;;;24.40;37.00;;;;;;4374354;32;20073;-41
2021/05/02 05:50:17;;;;;;;3.47;3.17;;;24.40;37.00;;;;;;4387405;32;20085;-41
2021/05/02 05:52:44;;;;;;;4.95;2.55;;;24.40;36.60;;;;;;4386979;32;20183;-40
2021/05/02 05:55:11;;;;;;;3.58;2.08;;;24.50;36.60;;;;;;4389326;32;20082;-41
2021/05/02 05:57:38;;;;;;;6.28;3.42;;;24.50;36.50;;;;;;4389218;32;20486;-41
2021/05/02 06:00:09;;;;;;;3.03;2.75;;;24.60;36.00;;;;;;4389237;32;20086;-41
2021/05/02 06:02:35;;;;;;;4.15;2.62;;;24.60;36.30;;;;;;4389183;32;20108;-41
2021/05/02 06:05:04;;;;;;;7.07;3.05;;;24.70;36.20;;;;;;4388043;32;20096;-41
2021/05/02 06:07:30;;;;;;;4.82;3.58;;;24.80;36.10;;;;;;4389345;32;20082;-37
2021/05/02 06:09:57;;;;;;;9.25;3.83;;;24.90;35.70;;;;;;4389475;32;20077;-43
2021/05/02 06:12:23;;;;;;;10.35;3.53;;;25.00;34.60;;;;;;4389416;32;20100;-43
2021/05/02 06:14:50;;;;;;;9.00;2.62;;;25.20;35.00;;;;;;4387750;32;20160;-42
2021/05/02 06:17:16;;;;;;;7.62;3.47;;;25.40;34.90;;;;;;4383570;32;20062;-43
2021/05/02 06:19:43;;;;;;;7.55;3.12;;;25.60;35.00;;;;;;4373881;32;20058;-44
2021/05/02 06:22:10;;;;;;;6.95;2.90;;;25.80;35.10;;;;;;4372846;32;20547;-43
2021/05/02 06:24:36;;;;;;;3.08;2.30;;;26.10;35.30;;;;;;4374309;32;20074;-43
2021/05/02 06:27:03;;;;;;;4.20;1.60;;;26.60;33.90;;;;;;4373739;32;20058;-42
2021/05/02 06:29:29;;;;;;;6.65;2.80;;;27.00;33.90;;;;;;4373829;32;20081;-44
2021/05/02 06:31:56;;;;;;;7.50;3.55;;;27.30;32.50;;;;;;4373825;32;20090;-42
2021/05/02 06:34:22;;;;;;;7.45;3.97;;;27.40;31.60;;;;;;4373863;32;20101;-43
2021/05/02 06:36:49;;;;;;;10.93;2.97;;;27.40;31.80;;;;;;4371862;32;20175;-42
2021/05/02 06:39:15;;;;;;;2.70;2.50;;;27.40;32.40;;;;;;4373754;32;20066;-43
2021/05/02 06:41:45;;;;;;;4.97;2.12;;;27.60;32.60;;;;;;4373809;32;20530;-43
2021/05/02 06:44:12;;;;;;;3.17;2.20;;;27.80;32.70;;;;;;4372195;32;20066;-42
2021/05/02 06:46:39;;;;;;;7.95;2.45;;;28.20;32.40;;;;;;4373669;32;20161;-44
2021/05/02 06:49:07;;;;;;;2.72;2.37;;;28.50;32.00;;;;;;4373488;32;20515;-43
2021/05/02 06:51:34;;;;;;;4.30;2.65;;;28.70;31.10;;;;;;4372416;32;20590;-42
2021/05/02 06:54:01;;;;;;;5.18;2.65;;;28.80;31.60;;;;;;4374414;32;20066;-43
2021/05/02 06:56:28;;;;;;;5.35;2.33;;;28.90;31.00;;;;;;4373500;32;20542;-44
2021/05/02 06:58:55;;;;;;;10.82;2.55;;;29.20;30.80;;;;;;4373717;32;20066;-41
2021/05/02 07:01:22;;;;;;;6.40;3.10;;;29.40;30.70;;;;;;4373362;32;20062;-43
2021/05/02 07:03:49;;;;;;;4.65;2.42;;;29.50;30.20;;;;;;4373823;32;20054;-42
2021/05/02 07:06:15;;;;;;;2.90;2.28;;;29.70;30.00;;;;;;4373588;32;20555;-43
2021/05/02 07:08:42;;;;;;;5.93;2.75;;;29.70;29.80;;;;;;4373212;32;20155;-45
2021/05/02 07:11:08;;;;;;;3.53;2.92;;;29.70;29.90;;;;;;4358286;32;20178;-42
2021/05/02 07:13:35;;;;;;;3.75;3.47;;;29.80;30.00;;;;;;4370896;32;20182;-41
2021/05/02 07:16:02;;;;;;;5.87;4.00;;;29.80;29.90;;;;;;4358386;32;20059;-43
2021/05/02 07:18:34;;;;;;;3.90;3.30;;;29.90;29.90;;;;;;4346289;32;20062;-43
2021/05/02 07:21:01;;;;;;;5.78;4.03;;;30.10;29.70;;;;;;4355774;32;20520;-41
2021/05/02 07:23:28;;;;;;;4.68;4.10;;;30.20;29.70;;;;;;4355944;32;20069;-42
2021/05/02 07:25:54;;;;;;;4.30;3.78;;;30.20;29.70;;;;;;4356131;32;20522;-41
2021/05/02 07:28:21;;;;;;;7.35;2.97;;;30.30;29.50;;;;;;4355469;32;20167;-43
2021/05/02 07:30:48;;;;;;;4.07;3.78;;;30.20;29.50;;;;;;4355390;32;20101;-43
2021/05/02 07:33:14;;;;;;;5.47;3.30;;;30.40;29.60;;;;;;4356003;32;20165;-42
2021/05/02 07:35:41;;;;;;;4.32;2.95;;;30.70;29.00;;;;;;4355325;32;20086;-42
2021/05/02 07:38:07;;;;;;;4.25;3.10;;;31.00;28.50;;;;;;4355455;32;20062;-44
2021/05/02 07:40:34;;;;;;;5.00;3.30;;;31.40;28.30;;;;;;4343156;32;20062;-43
2021/05/02 07:43:01;;;;;;;7.65;3.62;;;31.60;28.10;;;;;;4343580;32;20451;-43
2021/05/02 07:45:28;;;;;;;4.37;4.00;;;31.60;27.90;;;;;;4343264;32;20132;-43
2021/05/02 07:47:54;;;;;;;6.62;4.15;;;31.60;28.00;;;;;;4347217;32;20163;-43
2021/05/02 07:50:21;;;;;;;4.57;3.92;;;31.40;28.20;;;;;;4373276;32;20072;-40
2021/05/02 07:52:47;;;;;;;5.30;4.22;;;31.30;28.10;;;;;;4372851;32;20569;-43
2021/05/02 07:55:14;;;;;;;5.22;4.45;;;31.30;28.30;;;;;;4372815;32;20526;-42
2021/05/02 07:57:40;;;;;;;5.30;4.47;;;31.40;28.20;;;;;;4372706;32;20086;-42
2021/05/02 08:00:07;;;;;;;6.10;4.45;;;31.50;28.30;;;;;;4373048;32;20073;-37
2021/05/02 08:02:34;;;;;;;6.47;5.18;;;31.40;28.20;;;;;;4373153;32;20154;-42
2021/05/02 08:05:00;;;;;;;11.60;5.25;;;31.30;28.40;;;;;;4372339;32;20086;-42
2021/05/02 08:07:27;;;;;;;5.80;4.70;;;31.10;28.60;;;;;;4372550;32;20120;-42
2021/05/02 08:09:54;;;;;;;5.72;5.07;;;31.00;28.70;;;;;;4372689;32;20062;-43
2021/05/02 08:12:21;;;;;;;6.30;5.12;;;31.00;28.70;;;;;;4372971;32;20098;-42
2021/05/02 08:14:47;;;;;;;5.47;4.97;;;31.10;28.50;;;;;;4372408;32;20065;-43
2021/05/02 08:17:14;;;;;;;8.13;5.22;;;31.10;28.20;;;;;;4377617;32;20514;-42
2021/05/02 08:19:40;;;;;;;4.75;4.22;;;31.00;28.40;;;;;;4387572;32;20081;-43
2021/05/02 08:22:06;;;;;;;19.58;5.10;;;30.80;28.40;;;;;;4387536;32;20481;-41
2021/05/02 08:24:33;;;;;;;5.70;5.10;;;30.90;28.80;;;;;;4388268;32;20070;-41
2021/05/02 08:26:59;;;;;;;6.62;5.07;;;30.90;28.30;;;;;;4387384;32;20560;-40
2021/05/02 08:29:26;;;;;;;8.00;5.97;;;30.80;28.10;;;;;;4387792;32;20102;-40
2021/05/02 08:31:52;;;;;;;4.93;4.53;;;30.70;28.30;;;;;;4387563;32;20474;-42
2021/05/02 08:34:19;;;;;;;5.72;5.22;;;30.50;28.20;;;;;;4387669;32;20078;-41
2021/05/02 08:36:45;;;;;;;7.60;6.03;;;30.20;28.30;;;;;;4387269;32;20152;-41
2021/05/02 08:39:12;;;;;;;6.10;4.80;;;30.00;28.40;;;;;;4385913;32;20065;-39
2021/05/02 08:41:39;;;;;;;6.18;5.47;;;29.80;28.60;;;;;;4386356;32;20050;-40
2021/05/02 08:44:05;;;;;;;12.45;5.85;;;29.50;28.90;;;;;;4387772;32;20077;-40
2021/05/02 08:46:32;;;;;;;5.62;5.00;;;29.30;29.20;;;;;;4386212;32;20621;-39
2021/05/02 08:48:58;;;;;;;6.95;4.65;;;29.20;29.10;;;;;;4387678;32;20065;-42
2021/05/02 08:51:25;;;;;;;5.62;4.80;;;29.10;29.20;;;;;;4386340;32;20058;-38
2021/05/02 08:53:51;;;;;;;4.80;4.40;;;28.90;29.00;;;;;;4390132;32;20133;-41
2021/05/02 08:56:18;;;;;;;6.10;4.53;;;28.70;29.30;;;;;;4390284;32;20675;-39
2021/05/02 08:58:44;;;;;;;6.57;4.87;;;28.60;29.80;;;;;;4390142;32;20153;-42
2021/05/02 09:01:11;;;;;;;5.82;5.32;;;28.70;29.70;;;;;;4390073;32;20112;-40
2021/05/02 09:03:44;;;;;;;5.45;4.95;;;28.70;29.90;;;;;;4390454;32;20537;-41
2021/05/02 09:06:18;;;;;;;8.57;5.43;;;28.90;29.60;;;;;;4390205;32;20084;-39
2021/05/02 09:08:46;;;;;;;8.57;4.95;;;29.10;29.60;;;;;;4390066;32;20519;-41
2021/05/02 09:11:15;;;;;;;7.32;6.43;;;29.30;29.40;;;;;;4388599;32;20066;-44
2021/05/02 09:13:50;;;;;;;6.78;4.95;;;29.50;29.30;;;;;;4389005;32;20074;-39
2021/05/02 09:16:17;;;;;;;6.53;5.30;;;29.60;28.90;;;;;;4388465;32;20054;-40
2021/05/02 09:18:49;;;;;;;5.22;4.70;;;29.70;29.00;;;;;;4373873;32;20149;-40
2021/05/02 09:21:29;;;;;;;4.95;4.55;;;29.70;28.70;;;;;;4375002;32;20181;-41
2021/05/02 09:23:56;;;;;;;4.78;3.87;;;29.70;28.50;;;;;;4373418;32;20499;-41
2021/05/02 09:26:28;;;;;;;7.05;4.03;;;29.70;28.60;;;;;;4375297;32;20490;-40
2021/05/02 09:28:59;;;;;;;5.47;4.97;;;29.70;28.50;;;;;;4372843;32;20539;-41
2021/05/02 09:31:30;;;;;;;5.62;4.72;;;29.60;28.20;;;;;;4374890;32;20077;-40
2021/05/02 09:34:18;;;;;;;14.68;4.28;;;29.30;28.50;;;;;;4375061;32;20058;-36
2021/05/02 09:36:57;;;;;;;6.10;2.90;;;28.80;28.60;;;;;;4374754;32;20142;-40
2021/05/02 09:39:37;;;;;;;5.35;4.60;;;28.30;28.50;;;;;;4374576;32;20153;-39
2021/05/02 09:42:41;;;;;;;4.40;4.00;;;27.70;29.20;;;;;;4374434;32;20080;-36
2021/05/02 09:45:08;;;;;;;4.68;4.28;;;27.20;29.70;;;;;;4374886;32;20046;-39
2021/05/02 09:47:36;;;;;;;4.95;4.47;;;26.60;30.10;;;;;;4374707;32;20080;-36
2021/05/02 09:50:23;;;;;;;7.50;3.10;;;26.10;30.80;;;;;;4374130;32;20514;-38
2021/05/02 09:53:04;;;;;;;7.95;3.70;;;25.80;31.20;;;;;;4374886;32;20196;-37
2021/05/02 09:55:41;;;;;;;2.97;2.10;;;25.60;32.00;;;;;;4374658;32;20077;-37
2021/05/02 09:58:12;;;;;;;3.78;1.98;;;25.60;31.40;;;;;;4374729;32;20065;-35
2021/05/02 10:00:48;;;;;;;4.55;2.00;;;25.70;30.80;;;;;;4374252;32;20105;-38
2021/05/02 10:03:25;;;;;;;2.17;1.95;;;25.60;30.60;;;;;;4374325;32;20118;-35
2021/05/02 10:05:54;;;;;;;4.10;1.83;;;25.40;30.50;;;;;;4374467;32;20054;-36
2021/05/02 10:08:21;;;;;;;2.20;1.90;;;25.30;30.70;;;;;;4372692;32;20076;-38
2021/05/02 10:10:48;;;;;;;3.28;1.58;;;25.20;30.70;;;;;;4360150;32;20149;-36
2021/05/02 10:13:14;;;;;;;3.37;1.42;;;25.20;31.10;;;;;;4348472;32;20108;-36
2021/05/02 10:15:41;;;;;;;3.67;1.20;;;25.20;30.70;;;;;;4372829;32;20137;-36
2021/05/02 10:18:08;;;;;;;1.40;1.30;;;25.30;30.40;;;;;;4373552;32;20069;-36
2021/05/02 10:20:34;;;;;;;9.02;1.62;;;25.30;30.40;;;;;;4348134;32;20510;-38
2021/05/02 10:23:03;;;;;;;8.98;2.40;;;25.30;30.70;;;;;;4361410;32;20089;-35
2021/05/02 10:25:30;;;;;;;3.37;1.50;;;25.50;30.60;;;;;;4386456;32;20625;-39
2021/05/02 10:27:56;;;;;;;3.35;1.48;;;25.70;30.60;;;;;;4386521;32;20522;-38
2021/05/02 10:30:30;;;;;;;3.47;1.95;;;25.80;30.00;;;;;;4385849;32;20481;-36
2021/05/02 10:33:07;;;;;;;2.17;1.30;;;26.00;30.00;;;;;;4373942;32;20066;-36
2021/05/02 10:35:45;;;;;;;7.15;1.50;;;26.20;30.00;;;;;;4386417;32;20121;-38
2021/05/02 10:38:12;;;;;;;11.63;2.25;;;26.50;30.40;;;;;;4373913;32;20682;-36
2021/05/02 10:40:39;;;;;;;2.15;1.20;;;26.70;29.70;;;;;;4361469;32;20533;-39
2021/05/02 10:43:10;;;;;;;4.93;1.42;;;27.00;29.40;;;;;;4386506;32;20911;-39
2021/05/02 10:45:42;;;;;;;3.50;1.48;;;27.20;29.20;;;;;;4386333;32;20176;-39
2021/05/02 10:48:30;;;;;;;1.83;1.20;;;27.40;28.90;;;;;;4386163;32;20567;-37
2021/05/02 10:50:57;;;;;;;3.58;1.20;;;27.70;28.70;;;;;;4374928;32;20078;-39
2021/05/02 10:53:24;;;;;;;5.82;1.00;;;27.80;28.30;;;;;;4373893;32;20072;-40
2021/05/02 10:56:01;;;;;;;6.20;1.33;;;27.90;28.20;;;;;;4386607;32;20073;-40
2021/05/02 10:58:57;;;;;;;1.65;1.17;;;27.90;28.30;;;;;;4386285;32;20147;-40
2021/05/02 11:01:27;;;;;;;1.10;0.98;;;27.70;28.20;;;;;;4373684;32;20158;-38
2021/05/02 11:03:54;;;;;;;4.10;0.93;;;27.60;27.70;;;;;;4372388;32;20070;-40
2021/05/02 11:06:38;;;;;;;4.55;0.98;;;27.40;27.60;;;;;;4373430;32;20057;-40
2021/05/02 11:09:14;;;;;;;5.90;1.00;;;27.20;27.70;;;;;;4373184;32;20528;-38
2021/05/02 11:11:43;;;;;;;6.78;1.23;;;27.00;27.80;;;;;;4373215;32;20094;-40
2021/05/02 11:16:49;;;;;;;1.45;1.08;;;26.60;28.30;;;;;;4372625;32;20588;-39
2021/05/02 11:19:35;;;;;;;6.90;1.95;;;26.50;28.40;;;;;;4373749;32;20523;-39
2021/05/02 11:22:06;;;;;;;1.42;1.15;;;26.50;28.40;;;;;;4373501;32;20147;-38
2021/05/02 11:24:50;;;;;;;4.55;1.33;;;26.40;28.50;;;;;;4373535;32;20164;-38
2021/05/02 11:27:40;;;;;;;3.08;1.10;;;26.40;28.70;;;;;;4373029;32;20073;-37
2021/05/02 11:30:11;;;;;;;3.80;1.50;;;26.50;28.70;;;;;;4371387;32;20096;-40
2021/05/02 11:32:40;;;;;;;2.45;1.10;;;26.60;28.60;;;;;;4373088;32;20538;-37
2021/05/02 11:35:11;;;;;;;1.25;1.10;;;26.60;28.50;;;;;;4373178;32;20073;-38
2021/05/02 11:37:59;;;;;;;6.68;1.25;;;26.60;28.50;;;;;;4373059;32;20058;-38
2021/05/02 11:40:32;;;;;;;7.78;2.67;;;26.80;28.60;;;;;;4371530;32;20526;-37
2021/05/02 11:43:13;;;;;;;2.42;1.20;;;26.90;28.70;;;;;;4373051;32;20127;-39
2021/05/02 11:45:58;;;;;;;1.77;1.20;;;27.20;28.40;;;;;;4373433;32;20647;-40
2021/05/02 11:48:39;;;;;;;7.35;2.05;;;27.50;28.10;;;;;;4373130;32;20086;-39
2021/05/02 11:51:08;;;;;;;16.90;2.28;;;27.50;27.50;;;;;;4372997;32;20077;-38
2021/05/02 11:53:48;;;;;;;1.70;1.20;;;27.50;27.70;;;;;;4373067;32;20058;-38
2021/05/02 11:56:31;;;;;;;2.95;1.00;;;27.40;27.80;;;;;;4372950;32;20057;-39
2021/05/02 11:59:08;;;;;;;1.12;0.98;;;27.40;27.70;;;;;;4372783;32;20072;-38
2021/05/02 12:01:41;;;;;;;2.42;1.95;;;27.50;27.80;;;;;;4371657;32;20203;-39
2021/05/02 12:04:11;;;;;;;4.28;2.00;;;27.60;27.80;;;;;;4372760;32;20069;-38
2021/05/02 12:06:38;;;;;;;2.65;0.93;;;27.60;27.90;;;;;;4372629;32;20142;-40
2021/05/02 12:09:19;;;;;;;4.55;0.80;;;27.70;27.40;;;;;;4371472;32;20139;-40
2021/05/02 12:11:53;;;;;;;3.90;1.00;;;27.70;27.30;;;;;;4372609;32;20082;-39
2021/05/02 12:14:30;;;;;;;3.17;1.30;;;27.60;27.20;;;;;;4358879;32;20070;-38
2021/05/02 12:16:59;;;;;;;1.10;1.00;;;27.50;27.40;;;;;;4372811;32;20443;-38
2021/05/02 12:19:27;;;;;;;5.35;1.25;;;27.30;27.30;;;;;;4372760;32;20153;-40
2021/05/02 12:21:53;;;;;;;2.62;1.02;;;27.10;27.40;;;;;;4372630;32;20065;-40
2021/05/02 12:24:26;;;;;;;2.75;1.27;;;27.00;27.50;;;;;;4371509;32;20079;-39
2021/05/02 12:27:07;;;;;;;4.80;1.00;;;26.90;27.70;;;;;;4372465;32;20085;-36
2021/05/02 12:29:35;;;;;;;1.80;1.00;;;26.90;27.90;;;;;;4375614;32;20123;-39
2021/05/02 12:32:10;;;;;;;1.62;0.90;;;26.90;28.30;;;;;;4375384;32;20082;-39
2021/05/02 12:34:56;;;;;;;3.40;0.93;;;27.00;27.80;;;;;;4375674;32;20062;-39
2021/05/02 12:37:24;;;;;;;3.85;1.35;;;27.00;27.80;;;;;;4374164;32;20190;-39
2021/05/02 12:39:53;;;;;;;2.17;1.35;;;26.90;27.80;;;;;;4375958;32;20082;-40
2021/05/02 12:42:35;;;;;;;4.78;1.10;;;26.90;27.80;;;;;;4375597;32;20509;-40
2021/05/02 12:45:07;;;;;;;4.80;1.27;;;26.90;27.80;;;;;;4375719;32;20074;-40
2021/05/02 12:47:46;;;;;;;2.58;1.10;;;26.80;27.90;;;;;;4375482;32;20078;-40
2021/05/02 12:50:13;;;;;;;1.20;0.90;;;26.80;28.10;;;;;;4375389;32;21215;-40
2021/05/02 12:52:42;;;;;;;5.75;1.15;;;26.90;28.00;;;;;;4375605;32;20526;-40
2021/05/02 12:55:28;;;;;;;5.15;1.27;;;27.00;28.10;;;;;;4375222;32;20504;-39
2021/05/02 12:58:05;;;;;;;4.12;1.65;;;27.20;27.80;;;;;;4375370;32;20100;-38
2021/05/02 13:03:32;;;;;;;3.05;1.30;;;27.70;27.50;;;;;;4375456;32;20577;-41
2021/05/02 13:06:06;;;;;;;;;;;27.80;27.30;;;;;;4375840;32;20072;-39
2021/05/02 13:08:33;;;;;;;1.23;1.10;;;27.80;27.40;;;;;;4375146;32;20027;-38